Time;durP1;ratioP1;P1;durP2;ratioP2;P2;SDS_P1;SDS_P2;PMS_P1;PMS_P2;Temp;Humidity;BMP_temperature;BMP_pressure;BME280_temperature;BME280_humidity;BME280_pressure;Samples;Min_cycle;Max_cycle;Signal;HPM_P1;HPM_P2
2021/12/30 00:01:15;;;;;;;2.58;1.38;;;9.30;99.90;;;;;;5001204;28;20088;-50
2021/12/30 00:03:42;;;;;;;1.48;1.30;;;9.30;99.90;;;;;;5000377;28;20277;-49
2021/12/30 00:06:08;;;;;;;1.48;1.23;;;9.30;99.90;;;;;;5004546;28;20080;-49
2021/12/30 00:08:34;;;;;;;2.58;1.50;;;9.30;99.90;;;;;;5000140;28;20474;-49
2021/12/30 00:11:00;;;;;;;0.77;0.77;;;9.30;99.90;;;;;;5002931;28;20034;-49
2021/12/30 00:13:27;;;;;;;1.20;1.08;;;9.30;99.90;;;;;;5001489;28;20499;-49
2021/12/30 00:15:53;;;;;;;1.20;1.10;;;9.30;99.90;;;;;;5000742;28;20117;-49
2021/12/30 00:18:19;;;;;;;1.77;1.05;;;9.30;99.90;;;;;;4998558;28;20053;-49
2021/12/30 00:20:46;;;;;;;1.20;1.00;;;9.30;99.90;;;;;;5002401;28;20026;-49
2021/12/30 00:23:11;;;;;;;2.08;1.20;;;9.30;99.90;;;;;;4999619;28;20030;-49
2021/12/30 00:25:41;;;;;;;1.20;1.10;;;9.30;99.90;;;;;;5001763;28;20080;-50
2021/12/30 00:28:14;;;;;;;0.95;0.90;;;9.30;99.90;;;;;;5006141;28;20040;-49
2021/12/30 00:30:40;;;;;;;1.35;0.93;;;9.30;99.90;;;;;;5001700;28;20535;-49
2021/12/30 00:33:06;;;;;;;2.35;0.90;;;9.30;99.90;;;;;;5000786;28;20026;-49
2021/12/30 00:35:32;;;;;;;1.60;1.10;;;9.30;99.90;;;;;;5000273;28;20385;-49
2021/12/30 00:37:58;;;;;;;0.95;0.90;;;9.30;99.90;;;;;;4998664;28;20033;-49
2021/12/30 00:40:24;;;;;;;0.88;0.88;;;9.30;99.90;;;;;;5002654;28;20033;-49
2021/12/30 00:42:50;;;;;;;0.80;0.80;;;9.30;99.90;;;;;;5000218;28;20080;-49
2021/12/30 00:45:16;;;;;;;0.70;0.70;;;9.30;99.90;;;;;;5000442;28;20023;-49
2021/12/30 00:47:42;;;;;;;1.08;1.00;;;9.30;99.90;;;;;;5001932;28;20149;-49
2021/12/30 00:50:08;;;;;;;1.13;0.75;;;9.30;99.90;;;;;;5003935;28;20109;-49
2021/12/30 00:52:34;;;;;;;1.08;0.98;;;9.30;99.90;;;;;;4997875;28;20449;-49
2021/12/30 00:55:00;;;;;;;0.73;0.73;;;9.30;99.90;;;;;;4999784;28;20378;-50
2021/12/30 00:57:26;;;;;;;1.77;1.00;;;9.30;99.90;;;;;;5000781;28;20036;-49
2021/12/30 00:59:51;;;;;;;0.73;0.60;;;9.30;99.90;;;;;;5003912;28;20116;-49
2021/12/30 01:02:17;;;;;;;0.70;0.70;;;9.30;99.90;;;;;;5002299;28;20054;-49
2021/12/30 01:04:42;;;;;;;0.82;0.68;;;9.30;99.90;;;;;;5004323;28;20030;-49
2021/12/30 01:07:08;;;;;;;0.82;0.82;;;9.40;99.90;;;;;;5006282;28;20029;-49
2021/12/30 01:09:34;;;;;;;0.82;0.82;;;9.40;99.90;;;;;;5007624;28;20026;-49
2021/12/30 01:11:59;;;;;;;0.85;0.80;;;9.30;99.90;;;;;;5003655;28;20037;-49
2021/12/30 01:14:29;;;;;;;1.00;0.93;;;9.40;99.90;;;;;;5006386;28;20464;-49
2021/12/30 01:16:59;;;;;;;0.80;0.80;;;9.40;99.90;;;;;;5004502;28;20105;-49
2021/12/30 01:22:05;;;;;;;0.73;0.73;;;9.40;99.90;;;;;;5001230;28;20049;-49
2021/12/30 01:24:31;;;;;;;1.17;0.70;;;9.40;99.90;;;;;;5005957;28;20018;-49
2021/12/30 01:26:57;;;;;;;0.80;0.80;;;9.40;99.90;;;;;;5004969;28;20061;-49
2021/12/30 01:29:24;;;;;;;0.70;0.70;;;9.40;99.90;;;;;;5003196;28;20038;-49
2021/12/30 01:31:50;;;;;;;0.82;0.82;;;9.40;99.90;;;;;;5002424;28;20105;-49
2021/12/30 01:34:15;;;;;;;0.63;0.63;;;9.40;99.90;;;;;;5003222;28;20761;-49
2021/12/30 01:36:41;;;;;;;1.40;0.80;;;9.40;99.90;;;;;;5006036;28;20457;-50
2021/12/30 01:39:07;;;;;;;0.90;0.90;;;9.40;99.90;;;;;;5003727;28;20050;-51
2021/12/30 01:41:32;;;;;;;0.70;0.70;;;9.40;99.90;;;;;;5006058;28;20551;-50
2021/12/30 01:43:58;;;;;;;1.25;0.98;;;9.40;99.90;;;;;;5005862;28;20065;-50
2021/12/30 01:46:23;;;;;;;0.93;0.82;;;9.40;99.90;;;;;;5003627;28;20026;-49
2021/12/30 01:48:49;;;;;;;0.75;0.75;;;9.40;99.90;;;;;;5004161;28;20026;-50
2021/12/30 01:51:15;;;;;;;1.38;0.90;;;9.40;99.90;;;;;;5004282;28;20057;-49
2021/12/30 01:53:41;;;;;;;1.02;0.95;;;9.40;99.90;;;;;;5001136;28;20114;-49
2021/12/30 01:56:06;;;;;;;0.95;0.90;;;9.40;99.90;;;;;;5005140;28;20045;-49
2021/12/30 01:58:35;;;;;;;1.75;0.90;;;9.40;99.90;;;;;;5002467;28;20022;-49
2021/12/30 02:01:02;;;;;;;0.93;0.88;;;9.40;99.90;;;;;;5003324;28;20054;-49
2021/12/30 02:03:27;;;;;;;0.98;0.90;;;9.40;99.90;;;;;;5001799;28;20117;-50
2021/12/30 02:05:53;;;;;;;1.35;1.10;;;9.40;99.90;;;;;;5002289;28;20110;-49
2021/12/30 02:08:19;;;;;;;1.58;1.00;;;9.40;99.90;;;;;;5001943;28;20100;-50
2021/12/30 02:10:48;;;;;;;0.95;0.95;;;9.40;99.90;;;;;;5003409;28;20052;-49
2021/12/30 02:13:15;;;;;;;0.93;0.93;;;9.40;99.90;;;;;;4998890;28;20030;-50
2021/12/30 02:15:41;;;;;;;1.27;1.17;;;9.40;99.90;;;;;;5004273;28;20036;-49
2021/12/30 02:18:07;;;;;;;0.80;0.80;;;9.40;99.90;;;;;;5000806;28;20034;-49
2021/12/30 02:20:46;;;;;;;1.20;1.00;;;9.40;99.90;;;;;;5002267;28;20034;-50
2021/12/30 02:23:24;;;;;;;0.60;0.60;;;9.40;99.90;;;;;;5001220;28;20038;-49
2021/12/30 02:25:52;;;;;;;1.85;1.05;;;9.50;99.90;;;;;;5001282;28;20029;-49
2021/12/30 02:28:25;;;;;;;1.08;0.98;;;9.50;99.90;;;;;;5001705;28;20038;-49
2021/12/30 02:30:53;;;;;;;1.20;1.10;;;9.50;99.90;;;;;;5001830;28;20026;-49
2021/12/30 02:33:19;;;;;;;0.82;0.82;;;9.50;99.90;;;;;;5001313;28;20420;-49
2021/12/30 02:35:45;;;;;;;3.35;1.42;;;9.50;99.90;;;;;;5000902;28;20057;-49
2021/12/30 02:38:10;;;;;;;0.95;0.77;;;9.50;99.90;;;;;;5002238;28;20112;-49
2021/12/30 02:40:42;;;;;;;1.20;1.00;;;9.50;99.90;;;;;;5004901;28;20034;-50
2021/12/30 02:43:13;;;;;;;0.75;0.65;;;9.50;99.90;;;;;;5002533;28;20484;-49
2021/12/30 02:45:38;;;;;;;;;;;9.50;99.90;;;;;;5003920;28;20026;-49
2021/12/30 02:48:05;;;;;;;0.73;0.70;;;9.50;99.90;;;;;;5000664;28;20282;-49
2021/12/30 02:50:30;;;;;;;1.10;0.70;;;9.50;99.90;;;;;;5003057;28;20081;-49
2021/12/30 02:52:56;;;;;;;1.02;1.00;;;9.50;99.90;;;;;;4999334;28;20022;-50
2021/12/30 02:55:22;;;;;;;1.17;0.85;;;9.50;99.90;;;;;;5001508;28;20025;-50
2021/12/30 02:57:48;;;;;;;0.98;0.65;;;9.50;99.90;;;;;;5001403;28;20525;-50
2021/12/30 03:00:14;;;;;;;0.77;0.73;;;9.40;99.90;;;;;;5003125;28;20053;-49
2021/12/30 03:02:40;;;;;;;0.60;0.60;;;9.50;99.90;;;;;;4965575;28;1138866;-49
2021/12/30 03:05:08;;;;;;;1.40;0.70;;;9.50;99.90;;;;;;5000998;28;20049;-49
2021/12/30 03:07:34;;;;;;;0.52;0.52;;;9.50;99.90;;;;;;5003761;28;20018;-50
2021/12/30 03:10:00;;;;;;;0.50;0.50;;;9.50;99.90;;;;;;5002884;28;20042;-49
2021/12/30 03:12:26;;;;;;;0.85;0.60;;;9.50;99.90;;;;;;5000419;28;20037;-49
2021/12/30 03:14:51;;;;;;;0.40;0.40;;;9.50;99.90;;;;;;5001597;28;20034;-49
2021/12/30 03:17:17;;;;;;;0.75;0.57;;;9.50;99.90;;;;;;5001846;28;20064;-50
2021/12/30 03:19:43;;;;;;;0.50;0.50;;;9.50;99.90;;;;;;5003867;28;20030;-49
2021/12/30 03:22:09;;;;;;;0.40;0.40;;;9.50;99.90;;;;;;4999742;28;20041;-49
2021/12/30 03:24:35;;;;;;;0.70;0.70;;;9.50;99.90;;;;;;5005346;28;20026;-50
2021/12/30 03:27:03;;;;;;;1.05;0.60;;;9.50;99.90;;;;;;5003456;28;20041;-49
2021/12/30 03:29:28;;;;;;;0.52;0.52;;;9.50;99.90;;;;;;5002617;28;20109;-49
2021/12/30 03:31:54;;;;;;;0.40;0.40;;;9.50;99.90;;;;;;5000672;28;20114;-49
2021/12/30 03:34:20;;;;;;;0.50;0.50;;;9.50;99.90;;;;;;5002046;28;20022;-50
2021/12/30 03:36:45;;;;;;;0.50;0.50;;;9.50;99.90;;;;;;4998767;28;20038;-50
2021/12/30 03:39:13;;;;;;;0.88;0.45;;;9.50;99.90;;;;;;5003898;28;20033;-49
2021/12/30 03:41:39;;;;;;;0.43;0.43;;;9.50;99.90;;;;;;4999705;28;20125;-49
2021/12/30 03:44:05;;;;;;;0.40;0.40;;;9.50;99.90;;;;;;5003866;28;20837;-49
2021/12/30 03:46:31;;;;;;;4.95;0.50;;;9.50;99.90;;;;;;5004033;28;20030;-49
2021/12/30 03:48:58;;;;;;;0.50;0.50;;;9.50;99.90;;;;;;5004362;28;20037;-49
2021/12/30 03:51:25;;;;;;;1.50;0.50;;;9.50;99.90;;;;;;5000416;28;20031;-50
2021/12/30 03:53:54;;;;;;;0.50;0.50;;;9.50;99.90;;;;;;5002795;28;20054;-49
2021/12/30 03:56:24;;;;;;;0.50;0.50;;;9.50;99.90;;;;;;5000438;28;20040;-49
2021/12/30 03:58:50;;;;;;;0.32;0.30;;;9.50;99.90;;;;;;5002919;28;20249;-50
2021/12/30 04:01:18;;;;;;;0.88;0.50;;;9.50;99.90;;;;;;5000692;28;20050;-50
2021/12/30 04:03:44;;;;;;;0.40;0.40;;;9.50;99.90;;;;;;5000360;28;20029;-50
2021/12/30 04:06:10;;;;;;;0.43;0.43;;;9.50;99.90;;;;;;5005961;28;20032;-50
2021/12/30 04:08:36;;;;;;;0.30;0.30;;;9.50;99.90;;;;;;5001884;28;20265;-49
2021/12/30 04:11:03;;;;;;;0.47;0.47;;;9.50;99.90;;;;;;5000220;28;20445;-49
2021/12/30 04:13:29;;;;;;;0.30;0.30;;;9.50;99.90;;;;;;5001443;28;20026;-50
2021/12/30 04:15:55;;;;;;;0.50;0.50;;;9.50;99.90;;;;;;5002013;28;20042;-49
2021/12/30 04:18:20;;;;;;;0.60;0.50;;;9.50;99.90;;;;;;4999281;28;20014;-49
2021/12/30 04:20:46;;;;;;;0.40;0.40;;;9.50;99.90;;;;;;5000735;28;20041;-50
2021/12/30 04:23:13;;;;;;;1.65;0.40;;;9.50;99.90;;;;;;4999900;28;20049;-50
2021/12/30 04:25:39;;;;;;;0.45;0.40;;;9.50;99.90;;;;;;5001711;28;20438;-50
2021/12/30 04:28:05;;;;;;;0.45;0.45;;;9.50;99.90;;;;;;5004437;28;20076;-50
2021/12/30 04:30:31;;;;;;;0.30;0.30;;;9.50;99.90;;;;;;5000264;28;20034;-49
2021/12/30 04:32:57;;;;;;;0.75;0.70;;;9.50;99.90;;;;;;4998568;28;20437;-50
2021/12/30 04:35:23;;;;;;;0.93;0.70;;;9.50;99.90;;;;;;4999955;28;20029;-50
2021/12/30 04:37:49;;;;;;;0.50;0.50;;;9.50;99.90;;;;;;5003429;28;20026;-49
2021/12/30 04:40:14;;;;;;;0.40;0.40;;;9.50;99.90;;;;;;4999718;28;20362;-50
2021/12/30 04:42:42;;;;;;;0.38;0.38;;;9.60;99.90;;;;;;4999262;28;20041;-49
2021/12/30 04:45:09;;;;;;;1.67;0.60;;;9.60;99.90;;;;;;4999988;28;20393;-49
2021/12/30 04:47:37;;;;;;;0.40;0.40;;;9.50;99.90;;;;;;5001480;28;20427;-50
2021/12/30 04:50:04;;;;;;;0.40;0.40;;;9.50;99.90;;;;;;4996591;28;20026;-49
2021/12/30 04:52:29;;;;;;;0.52;0.47;;;9.60;99.90;;;;;;5001246;28;20026;-49
2021/12/30 04:54:55;;;;;;;0.57;0.57;;;9.60;99.90;;;;;;5001621;28;20353;-49
2021/12/30 04:57:21;;;;;;;0.68;0.40;;;9.60;99.90;;;;;;4999801;28;20027;-49
2021/12/30 04:59:46;;;;;;;0.30;0.30;;;9.60;99.90;;;;;;5003145;28;20109;-49
2021/12/30 05:02:12;;;;;;;0.68;0.50;;;9.60;99.90;;;;;;4998710;28;20416;-49
2021/12/30 05:04:38;;;;;;;0.43;0.43;;;9.50;99.90;;;;;;5000604;28;20044;-49
2021/12/30 05:07:04;;;;;;;0.40;0.40;;;9.60;99.90;;;;;;5000137;28;20432;-49
2021/12/30 05:09:31;;;;;;;0.32;0.32;;;9.50;99.90;;;;;;5000033;28;20023;-49
2021/12/30 05:11:57;;;;;;;0.35;0.35;;;9.60;99.90;;;;;;4998818;28;20107;-50
2021/12/30 05:14:23;;;;;;;0.47;0.47;;;9.60;99.90;;;;;;5000408;28;20061;-49
2021/12/30 05:16:49;;;;;;;0.50;0.50;;;9.60;99.90;;;;;;5001779;28;20524;-50
2021/12/30 05:19:15;;;;;;;0.60;0.50;;;9.50;99.90;;;;;;4998656;28;20117;-49
2021/12/30 05:21:41;;;;;;;0.38;0.38;;;9.60;99.90;;;;;;4996385;28;20132;-49
2021/12/30 05:24:07;;;;;;;0.50;0.50;;;9.60;99.90;;;;;;5001779;28;20104;-49
2021/12/30 05:26:33;;;;;;;0.30;0.30;;;9.60;99.90;;;;;;5000279;28;20080;-49
2021/12/30 05:29:00;;;;;;;0.50;0.50;;;9.60;99.90;;;;;;5000251;28;20030;-49
2021/12/30 05:31:27;;;;;;;0.40;0.40;;;9.60;99.90;;;;;;4997584;28;20706;-49
2021/12/30 05:33:53;;;;;;;0.40;0.40;;;9.60;99.90;;;;;;5001023;28;20079;-49
2021/12/30 05:36:19;;;;;;;0.50;0.50;;;9.60;99.90;;;;;;4994288;28;20048;-49
2021/12/30 05:38:45;;;;;;;0.40;0.40;;;9.60;99.90;;;;;;5000159;28;20021;-49
2021/12/30 05:41:10;;;;;;;0.40;0.40;;;9.60;99.90;;;;;;5005652;28;20032;-49
2021/12/30 05:43:36;;;;;;;0.43;0.40;;;9.60;99.90;;;;;;5004901;28;20026;-49
2021/12/30 05:46:02;;;;;;;0.63;0.60;;;9.60;99.90;;;;;;5002414;28;20014;-49
2021/12/30 05:48:28;;;;;;;0.32;0.32;;;9.60;99.90;;;;;;5004018;28;20033;-49
2021/12/30 05:50:54;;;;;;;0.40;0.40;;;9.60;99.90;;;;;;5001455;28;20041;-49
2021/12/30 05:53:20;;;;;;;0.40;0.40;;;9.60;99.90;;;;;;5002678;28;20022;-49
2021/12/30 05:55:46;;;;;;;0.73;0.73;;;9.60;99.90;;;;;;5004371;28;20503;-49
2021/12/30 05:58:12;;;;;;;0.38;0.38;;;9.60;99.90;;;;;;5002899;28;20018;-49
2021/12/30 06:00:38;;;;;;;1.25;0.60;;;9.60;99.90;;;;;;5004347;28;20030;-50
2021/12/30 06:03:04;;;;;;;0.80;0.52;;;9.60;99.90;;;;;;5006928;28;20060;-51
2021/12/30 06:05:30;;;;;;;0.47;0.47;;;9.60;99.90;;;;;;5002966;28;20126;-49
2021/12/30 06:07:55;;;;;;;0.35;0.35;;;9.60;99.90;;;;;;5002873;28;20022;-49
2021/12/30 06:10:21;;;;;;;0.47;0.47;;;9.60;99.90;;;;;;5002991;28;20019;-49
2021/12/30 06:12:47;;;;;;;0.40;0.40;;;9.60;99.90;;;;;;5003689;28;20471;-49
2021/12/30 06:15:14;;;;;;;0.30;0.30;;;9.70;99.90;;;;;;5002641;28;20037;-50
2021/12/30 06:17:41;;;;;;;0.32;0.32;;;9.70;99.90;;;;;;5002692;28;20022;-50
2021/12/30 06:20:09;;;;;;;0.57;0.50;;;9.60;99.90;;;;;;5002437;28;20026;-49
2021/12/30 06:22:34;;;;;;;0.50;0.50;;;9.70;99.90;;;;;;5002217;28;20042;-49
2021/12/30 06:25:00;;;;;;;0.35;0.35;;;9.70;99.90;;;;;;5006383;28;20033;-49
2021/12/30 06:27:26;;;;;;;0.30;0.30;;;9.70;99.90;;;;;;5004590;28;20083;-49
2021/12/30 06:29:51;;;;;;;0.68;0.45;;;9.70;99.90;;;;;;5004040;28;20096;-49
2021/12/30 06:32:17;;;;;;;0.60;0.40;;;9.70;99.90;;;;;;5001258;28;20165;-50
2021/12/30 06:34:42;;;;;;;0.55;0.40;;;9.70;99.90;;;;;;5003408;28;20454;-49
2021/12/30 06:37:08;;;;;;;0.40;0.40;;;9.70;99.90;;;;;;5000790;28;20053;-47
2021/12/30 06:39:34;;;;;;;0.20;0.20;;;9.70;99.90;;;;;;5004515;28;20053;-48
2021/12/30 06:41:59;;;;;;;0.40;0.40;;;9.70;99.90;;;;;;5001934;28;20049;-47
2021/12/30 06:44:25;;;;;;;0.40;0.40;;;9.70;99.90;;;;;;5001971;28;20026;-48
2021/12/30 06:46:57;;;;;;;2.20;0.55;;;9.70;99.90;;;;;;5001368;28;20030;-47
2021/12/30 06:49:24;;;;;;;1.02;0.55;;;9.70;99.90;;;;;;5002221;28;20022;-47
2021/12/30 06:51:50;;;;;;;0.50;0.50;;;9.70;99.90;;;;;;5003500;28;20041;-47
2021/12/30 06:54:15;;;;;;;0.40;0.40;;;9.70;99.90;;;;;;5002037;28;20031;-47
2021/12/30 06:56:42;;;;;;;2.63;0.50;;;9.70;99.90;;;;;;5002883;28;20030;-47
2021/12/30 06:59:07;;;;;;;0.80;0.63;;;9.70;99.90;;;;;;5003496;28;20453;-47
2021/12/30 07:01:33;;;;;;;0.30;0.30;;;9.70;99.90;;;;;;5000782;28;20041;-48
2021/12/30 07:03:59;;;;;;;4.47;0.63;;;9.70;99.90;;;;;;5003355;28;20398;-47
2021/12/30 07:06:25;;;;;;;0.50;0.50;;;9.70;99.90;;;;;;5001795;28;20056;-47
2021/12/30 07:08:50;;;;;;;2.50;0.60;;;9.70;99.90;;;;;;5000129;28;20530;-47
2021/12/30 07:11:16;;;;;;;0.40;0.40;;;9.70;99.90;;;;;;5003464;28;20041;-47
2021/12/30 07:13:42;;;;;;;0.60;0.60;;;9.70;99.90;;;;;;5001514;28;20097;-47
2021/12/30 07:16:07;;;;;;;0.95;0.70;;;9.70;99.90;;;;;;5002236;28;20053;-47
2021/12/30 07:18:33;;;;;;;0.40;0.40;;;9.70;99.90;;;;;;5006843;28;20029;-47
2021/12/30 07:20:59;;;;;;;0.50;0.50;;;9.70;99.90;;;;;;5004197;28;20034;-48
2021/12/30 07:23:24;;;;;;;0.70;0.70;;;9.70;99.90;;;;;;5001127;28;20033;-47
2021/12/30 07:25:50;;;;;;;0.50;0.50;;;9.70;99.90;;;;;;5001330;28;20073;-47
2021/12/30 07:28:16;;;;;;;0.50;0.50;;;9.70;99.90;;;;;;5001391;28;20023;-47
2021/12/30 07:30:41;;;;;;;0.50;0.50;;;9.70;99.90;;;;;;5002625;28;20089;-49
2021/12/30 07:33:07;;;;;;;1.05;0.68;;;9.70;99.90;;;;;;4999840;28;20031;-49
2021/12/30 07:35:35;;;;;;;0.40;0.40;;;9.70;99.90;;;;;;5002790;28;20030;-49
2021/12/30 07:38:02;;;;;;;0.50;0.50;;;9.70;99.90;;;;;;5003024;28;20022;-49
2021/12/30 07:40:28;;;;;;;0.85;0.70;;;9.70;99.90;;;;;;5004114;28;20081;-49
2021/12/30 07:42:54;;;;;;;0.70;0.70;;;9.70;99.90;;;;;;5001012;28;20034;-49
2021/12/30 07:45:19;;;;;;;10.88;0.95;;;9.70;99.90;;;;;;5003064;28;20040;-49
2021/12/30 07:47:46;;;;;;;1.63;0.90;;;9.80;99.90;;;;;;5000844;28;20027;-49
2021/12/30 07:50:12;;;;;;;2.05;0.80;;;9.70;99.90;;;;;;5005379;28;20037;-49
2021/12/30 07:52:39;;;;;;;0.93;0.70;;;9.80;99.90;;;;;;4998749;28;20072;-49
2021/12/30 07:55:06;;;;;;;0.70;0.70;;;9.70;99.90;;;;;;5001651;28;20022;-49
2021/12/30 07:57:32;;;;;;;0.60;0.60;;;9.80;99.90;;;;;;5000691;28;20466;-49
2021/12/30 07:59:57;;;;;;;1.08;0.60;;;9.80;99.90;;;;;;5004409;28;20045;-50
2021/12/30 08:02:23;;;;;;;0.55;0.52;;;9.80;99.90;;;;;;4998344;28;20042;-49
2021/12/30 08:04:49;;;;;;;1.10;0.88;;;9.80;99.90;;;;;;5002537;28;20441;-49
2021/12/30 08:07:21;;;;;;;0.70;0.70;;;9.80;99.90;;;;;;4999581;28;20026;-50
2021/12/30 08:09:47;;;;;;;1.13;0.82;;;9.80;99.90;;;;;;5000841;28;20101;-49
2021/12/30 08:12:13;;;;;;;0.77;0.70;;;9.80;99.90;;;;;;4999136;28;20117;-49
2021/12/30 08:14:38;;;;;;;0.80;0.80;;;9.80;99.90;;;;;;5002144;28;20476;-49
2021/12/30 08:17:04;;;;;;;0.50;0.50;;;9.80;99.90;;;;;;5002461;28;20026;-49
2021/12/30 08:19:30;;;;;;;0.68;0.68;;;9.80;99.90;;;;;;5001618;28;20095;-49
2021/12/30 08:21:55;;;;;;;0.77;0.60;;;9.80;99.90;;;;;;5000657;28;20096;-52
2021/12/30 08:24:21;;;;;;;0.70;0.60;;;9.80;99.90;;;;;;5003036;28;20026;-49
2021/12/30 08:26:47;;;;;;;0.63;0.63;;;9.80;99.90;;;;;;5000411;28;20116;-49
2021/12/30 08:29:13;;;;;;;2.85;0.80;;;9.80;99.90;;;;;;4999920;28;20077;-49
2021/12/30 08:31:39;;;;;;;0.65;0.65;;;9.80;99.90;;;;;;5002340;28;20032;-50
2021/12/30 08:34:05;;;;;;;0.70;0.70;;;9.80;99.90;;;;;;5007000;28;20405;-49
2021/12/30 08:36:32;;;;;;;0.65;0.65;;;9.80;99.90;;;;;;5007048;28;20040;-49
2021/12/30 08:38:58;;;;;;;0.70;0.70;;;9.80;99.90;;;;;;5003207;28;20461;-49
2021/12/30 08:41:24;;;;;;;0.95;0.90;;;9.90;99.90;;;;;;5003621;28;20049;-49
2021/12/30 08:43:50;;;;;;;2.75;1.13;;;9.80;99.90;;;;;;5004238;28;20433;-50
2021/12/30 08:46:16;;;;;;;1.40;0.93;;;9.80;99.90;;;;;;5003044;28;20072;-49
2021/12/30 08:48:42;;;;;;;0.82;0.82;;;9.80;99.90;;;;;;5002601;28;20018;-49
2021/12/30 08:51:09;;;;;;;1.15;0.75;;;9.80;99.90;;;;;;5001594;28;20334;-49
2021/12/30 08:53:41;;;;;;;1.05;0.60;;;9.80;99.90;;;;;;5004698;28;20042;-49
2021/12/30 08:56:14;;;;;;;1.02;0.77;;;9.80;99.90;;;;;;5002588;28;20469;-49
2021/12/30 08:58:40;;;;;;;0.73;0.70;;;9.90;99.90;;;;;;5003027;28;20162;-49
2021/12/30 09:01:06;;;;;;;0.60;0.60;;;9.90;99.90;;;;;;5002955;28;20093;-50
2021/12/30 09:03:32;;;;;;;0.68;0.63;;;9.90;99.90;;;;;;5001137;28;20053;-49
2021/12/30 09:05:57;;;;;;;0.47;0.47;;;9.90;99.90;;;;;;5000742;28;21894;-49
2021/12/30 09:08:23;;;;;;;0.50;0.50;;;9.90;99.90;;;;;;5007989;28;20087;-49
2021/12/30 09:10:50;;;;;;;0.38;0.38;;;9.90;99.90;;;;;;5007166;28;20121;-49
2021/12/30 09:13:18;;;;;;;0.50;0.50;;;9.90;99.90;;;;;;5021304;28;20034;-49
2021/12/30 09:15:45;;;;;;;0.47;0.47;;;9.90;99.90;;;;;;5009855;28;20188;-49
2021/12/30 09:18:11;;;;;;;0.63;0.60;;;9.90;99.90;;;;;;5009259;28;20467;-49
2021/12/30 09:20:38;;;;;;;0.50;0.50;;;9.90;99.90;;;;;;5012474;28;20030;-49
2021/12/30 09:23:04;;;;;;;0.93;0.80;;;9.90;99.90;;;;;;5007799;28;20381;-49
2021/12/30 09:25:30;;;;;;;1.13;0.70;;;9.90;99.90;;;;;;5014072;28;20025;-49
2021/12/30 09:27:57;;;;;;;0.50;0.50;;;9.90;99.90;;;;;;5013614;28;20029;-49
2021/12/30 09:30:24;;;;;;;0.57;0.50;;;10.00;99.90;;;;;;5013664;28;20018;-51
2021/12/30 09:32:52;;;;;;;0.50;0.50;;;10.00;99.90;;;;;;5012732;28;20030;-49
2021/12/30 09:35:18;;;;;;;0.50;0.50;;;10.00;99.90;;;;;;5013558;28;20358;-50
2021/12/30 09:37:45;;;;;;;0.50;0.50;;;10.00;99.90;;;;;;5009381;28;20031;-49
2021/12/30 09:40:14;;;;;;;0.98;0.70;;;10.00;99.90;;;;;;5013718;28;20109;-49
2021/12/30 09:42:51;;;;;;;0.55;0.55;;;10.00;99.90;;;;;;5010001;28;20135;-49
2021/12/30 09:45:17;;;;;;;0.43;0.43;;;10.00;99.90;;;;;;5012588;28;20029;-49
2021/12/30 09:47:52;;;;;;;1.17;0.57;;;10.10;99.90;;;;;;5007606;28;20029;-49
2021/12/30 09:50:22;;;;;;;0.63;0.60;;;10.00;99.90;;;;;;5012046;28;20469;-49
2021/12/30 09:52:47;;;;;;;0.75;0.65;;;10.00;99.90;;;;;;5004454;28;20385;-49
2021/12/30 09:55:13;;;;;;;0.80;0.80;;;10.10;99.90;;;;;;5005828;28;20549;-49
2021/12/30 09:57:40;;;;;;;1.45;0.70;;;10.10;99.90;;;;;;5005049;28;20029;-49
2021/12/30 10:00:09;;;;;;;0.77;0.60;;;10.10;99.90;;;;;;5006418;28;20420;-50
2021/12/30 10:02:35;;;;;;;0.80;0.77;;;10.10;99.90;;;;;;5001916;28;20042;-51
2021/12/30 10:05:09;;;;;;;2.67;1.10;;;10.10;99.90;;;;;;5010632;28;20032;-51
2021/12/30 10:07:39;;;;;;;0.98;0.80;;;10.10;99.90;;;;;;5003853;28;20030;-50
2021/12/30 10:10:25;;;;;;;1.00;1.00;;;10.20;99.90;;;;;;5006026;28;20030;-50
2021/12/30 10:12:51;;;;;;;2.58;1.65;;;10.20;99.90;;;;;;5003927;28;20037;-51
2021/12/30 10:15:16;;;;;;;1.73;1.50;;;10.20;99.90;;;;;;5007339;28;20102;-51
2021/12/30 10:17:42;;;;;;;0.63;0.63;;;10.30;99.90;;;;;;5004287;28;20700;-51
2021/12/30 10:20:43;;;;;;;1.58;1.35;;;10.30;99.90;;;;;;5006211;28;20438;-53
2021/12/30 10:23:21;;;;;;;1.02;0.90;;;10.30;99.90;;;;;;5005303;28;20041;-51
2021/12/30 10:25:53;;;;;;;0.70;0.70;;;10.30;99.90;;;;;;5009345;28;20444;-51
2021/12/30 10:28:33;;;;;;;1.58;0.63;;;10.30;99.90;;;;;;5009392;28;20048;-51
2021/12/30 10:31:16;;;;;;;0.90;0.80;;;10.30;99.90;;;;;;5004673;28;20101;-51
2021/12/30 10:34:09;;;;;;;0.73;0.70;;;10.30;99.90;;;;;;5006344;28;20582;-51
2021/12/30 10:36:35;;;;;;;0.47;0.47;;;10.30;99.90;;;;;;5002732;28;20144;-51
2021/12/30 10:39:29;;;;;;;0.68;0.50;;;10.30;99.90;;;;;;5009267;28;20026;-51
2021/12/30 10:42:09;;;;;;;0.50;0.50;;;10.40;99.90;;;;;;5009094;28;20519;-51
2021/12/30 10:44:56;;;;;;;1.60;0.80;;;10.40;99.90;;;;;;5008819;28;20090;-51
2021/12/30 10:47:33;;;;;;;1.38;0.70;;;10.40;99.90;;;;;;5008231;28;20026;-51
2021/12/30 10:50:11;;;;;;;0.88;0.57;;;10.40;99.90;;;;;;5007906;28;20104;-51
2021/12/30 10:52:49;;;;;;;0.88;0.68;;;10.40;99.90;;;;;;5008096;28;20058;-51
2021/12/30 10:55:16;;;;;;;0.98;0.68;;;10.40;99.90;;;;;;5007942;28;20018;-51
2021/12/30 10:57:41;;;;;;;0.80;0.80;;;10.50;99.90;;;;;;5007665;28;20073;-51
2021/12/30 11:00:08;;;;;;;1.33;0.50;;;10.60;99.90;;;;;;5006686;28;20026;-51
2021/12/30 11:02:35;;;;;;;1.17;0.68;;;10.60;99.90;;;;;;5009222;28;20044;-51
2021/12/30 11:05:10;;;;;;;1.48;1.10;;;10.60;99.90;;;;;;5010268;28;20084;-51
2021/12/30 11:07:53;;;;;;;1.83;0.70;;;10.60;99.90;;;;;;5008442;28;20473;-52
2021/12/30 11:10:33;;;;;;;0.57;0.57;;;10.70;99.90;;;;;;5010288;28;20482;-51
2021/12/30 11:13:10;;;;;;;0.70;0.70;;;10.70;99.90;;;;;;5007799;28;20382;-52
2021/12/30 11:15:36;;;;;;;0.50;0.50;;;10.80;99.90;;;;;;5010738;28;20030;-51
2021/12/30 11:18:15;;;;;;;0.80;0.80;;;10.80;99.90;;;;;;5009265;28;20033;-51
2021/12/30 11:20:47;;;;;;;0.55;0.55;;;10.90;99.90;;;;;;5007630;28;20366;-51
2021/12/30 11:23:14;;;;;;;3.22;0.65;;;10.90;99.90;;;;;;5000299;28;20030;-51
2021/12/30 11:25:40;;;;;;;0.47;0.47;;;10.90;99.90;;;;;;4999501;28;20037;-51
2021/12/30 11:28:06;;;;;;;0.55;0.55;;;10.90;99.90;;;;;;5002498;28;20039;-51
2021/12/30 11:30:32;;;;;;;1.45;0.75;;;11.00;99.90;;;;;;5001093;28;20030;-51
2021/12/30 11:32:58;;;;;;;0.65;0.65;;;11.00;99.90;;;;;;5002686;28;20034;-51
2021/12/30 11:35:26;;;;;;;0.75;0.75;;;11.00;99.90;;;;;;5002182;28;20358;-51
2021/12/30 11:37:53;;;;;;;0.60;0.60;;;11.00;99.90;;;;;;4999504;28;20048;-51
2021/12/30 11:40:21;;;;;;;0.40;0.40;;;11.00;99.90;;;;;;5003235;28;20032;-51
2021/12/30 11:42:52;;;;;;;0.82;0.70;;;11.00;99.90;;;;;;5006466;28;20049;-52
2021/12/30 11:45:29;;;;;;;1.05;0.68;;;11.00;99.90;;;;;;5002724;28;20033;-51
2021/12/30 11:47:58;;;;;;;0.68;0.68;;;11.00;99.90;;;;;;5000919;28;20062;-51
2021/12/30 11:50:26;;;;;;;0.47;0.47;;;11.10;99.90;;;;;;5001911;28;20030;-51
2021/12/30 11:53:11;;;;;;;1.85;0.77;;;11.10;99.90;;;;;;4999356;28;20472;-51
2021/12/30 11:55:45;;;;;;;1.17;0.80;;;11.10;99.90;;;;;;5003352;28;20030;-51
2021/12/30 11:58:29;;;;;;;1.08;0.75;;;11.10;99.90;;;;;;4998451;28;20062;-51
2021/12/30 12:00:56;;;;;;;0.45;0.45;;;11.10;99.90;;;;;;5002241;28;20026;-51
2021/12/30 12:03:36;;;;;;;0.60;0.60;;;11.10;99.90;;;;;;5006135;28;20614;-51
2021/12/30 12:06:04;;;;;;;0.80;0.73;;;11.20;99.90;;;;;;5000284;28;20030;-52
2021/12/30 12:08:41;;;;;;;0.68;0.68;;;11.20;99.90;;;;;;5001698;28;20076;-51
2021/12/30 12:11:18;;;;;;;0.77;0.50;;;11.20;99.90;;;;;;5008688;28;20021;-51
2021/12/30 12:13:47;;;;;;;0.30;0.30;;;11.20;99.90;;;;;;5008000;28;20121;-51
2021/12/30 12:16:16;;;;;;;0.50;0.50;;;11.20;99.90;;;;;;5008220;28;20061;-51
2021/12/30 12:19:03;;;;;;;0.50;0.50;;;11.30;99.90;;;;;;5008020;28;20034;-51
2021/12/30 12:21:46;;;;;;;0.47;0.47;;;11.30;99.90;;;;;;5007020;28;20048;-51
2021/12/30 12:24:21;;;;;;;0.50;0.50;;;11.30;99.90;;;;;;5002691;28;20519;-51
2021/12/30 12:26:52;;;;;;;0.70;0.60;;;11.30;99.90;;;;;;5009100;28;20037;-51
2021/12/30 12:29:23;;;;;;;1.55;0.55;;;11.30;99.90;;;;;;5006407;28;20194;-51
2021/12/30 12:31:58;;;;;;;0.52;0.52;;;11.30;99.90;;;;;;5008663;28;20032;-51
2021/12/30 12:34:56;;;;;;;0.50;0.50;;;11.30;99.90;;;;;;5005237;28;20479;-51
2021/12/30 12:37:33;;;;;;;0.50;0.50;;;11.40;99.90;;;;;;5001294;28;20042;-52
2021/12/30 12:40:03;;;;;;;0.50;0.50;;;11.40;99.90;;;;;;5003594;28;20026;-52
2021/12/30 12:42:52;;;;;;;0.60;0.60;;;11.50;99.90;;;;;;4999532;28;20057;-49
2021/12/30 12:45:23;;;;;;;1.25;0.70;;;11.50;99.90;;;;;;5001186;28;20486;-49
2021/12/30 12:48:17;;;;;;;0.60;0.60;;;11.40;99.90;;;;;;4999776;28;20113;-49
2021/12/30 12:51:00;;;;;;;0.85;0.60;;;11.40;99.90;;;;;;4999225;28;20361;-49
2021/12/30 12:53:28;;;;;;;0.75;0.70;;;11.50;99.90;;;;;;4998111;28;20041;-49
2021/12/30 12:55:58;;;;;;;0.65;0.65;;;11.50;99.90;;;;;;5006508;28;20026;-49
2021/12/30 12:58:28;;;;;;;0.40;0.40;;;11.50;99.90;;;;;;5004421;28;20121;-49
2021/12/30 13:00:59;;;;;;;0.57;0.57;;;11.60;99.90;;;;;;5003094;28;20543;-50
2021/12/30 13:03:26;;;;;;;0.82;0.80;;;11.50;99.90;;;;;;5003652;28;20445;-49